Weather at Reggio Calabria Airport

Public forecast

Using degrees Celsius for public forecast. Weather courtesy of forecast.io.

Current aviation weather report (METAR) for Reggio Calabria Airport

Retrieved 2022/01/23 09:20 UTC (22 minutes ago):

LICR 230920Z AUTO 01012KT 340V040 9999 NCD 12/01 Q1028

Aviation forecast (TAF) for Reggio Calabria Airport

Retrieved 2022/01/23 06:00 UTC (4 hours ago):

TAF LICR 230500Z 2306/2406 01013KT 9999 SCT040